createdAt,value
2019-03-20T00:01:21.142Z,98670.17
2019-03-20T00:03:50.515Z,98674.66
2019-03-20T00:06:19.847Z,98676.09
2019-03-20T00:08:49.189Z,98680.42
2019-03-20T00:11:18.534Z,98679.30
2019-03-20T00:13:47.859Z,98681.48
2019-03-20T00:16:17.333Z,98687.88
2019-03-20T00:18:46.683Z,98682.05
2019-03-20T00:21:16.019Z,98684.66
2019-03-20T00:23:46.637Z,98687.41
2019-03-20T00:26:15.983Z,98688.13
2019-03-20T00:28:45.337Z,98682.56
2019-03-20T00:31:14.687Z,98684.06
2019-03-20T00:33:44.025Z,98685.18
2019-03-20T00:36:13.368Z,98677.34
2019-03-20T00:38:42.733Z,98688.59
2019-03-20T00:41:12.085Z,98676.23
2019-03-20T00:43:41.428Z,98683.81
2019-03-20T00:46:10.826Z,98681.02
2019-03-20T00:48:40.174Z,98684.37
2019-03-20T00:51:09.515Z,98683.83
2019-03-20T00:53:38.862Z,98686.31
2019-03-20T00:56:08.220Z,98688.81
2019-03-20T00:58:39.670Z,98681.88
2019-03-20T01:01:08.666Z,98683.13
2019-03-20T01:03:38.004Z,98684.43
2019-03-20T01:06:07.353Z,98679.00
2019-03-20T01:08:36.692Z,98676.31
2019-03-20T01:11:06.022Z,98676.80
2019-03-20T01:13:35.371Z,98675.41
2019-03-20T01:16:04.789Z,98679.84
2019-03-20T01:18:34.108Z,98681.03
2019-03-20T01:21:03.533Z,98672.67
2019-03-20T01:23:32.872Z,98671.92
2019-03-20T01:26:02.210Z,98681.03
2019-03-20T01:28:31.526Z,98676.38
2019-03-20T01:31:00.884Z,98681.24
2019-03-20T01:33:30.209Z,98680.09
2019-03-20T01:35:59.617Z,98674.77
2019-03-20T01:38:28.997Z,98677.56
2019-03-20T01:40:58.328Z,98676.77
2019-03-20T01:43:27.667Z,98672.40
2019-03-20T01:45:57.005Z,98671.06
2019-03-20T01:48:26.374Z,98667.75
2019-03-20T01:50:55.703Z,98671.21
2019-03-20T01:53:25.026Z,98673.88
2019-03-20T01:55:54.369Z,98673.60
2019-03-20T01:58:23.700Z,98675.60
2019-03-20T02:00:53.041Z,98676.44
2019-03-20T02:03:22.373Z,98671.62
2019-03-20T02:05:51.730Z,98678.62
2019-03-20T02:08:21.072Z,98673.59
2019-03-20T02:10:50.405Z,98675.75
2019-03-20T02:13:19.745Z,98678.50
2019-03-20T02:15:49.089Z,98675.89
2019-03-20T02:18:18.430Z,98679.22
2019-03-20T02:20:47.761Z,98676.13
2019-03-20T02:23:17.102Z,98679.13
2019-03-20T02:25:46.511Z,98679.58
2019-03-20T02:28:15.857Z,98679.02
2019-03-20T02:30:45.223Z,98670.04
2019-03-20T02:33:14.635Z,98670.39
2019-03-20T02:35:51.206Z,98672.69
2019-03-20T02:38:15.088Z,98679.02
2019-03-20T02:40:44.438Z,98678.54
2019-03-20T02:43:13.867Z,98674.13
2019-03-20T02:45:43.292Z,98674.19
2019-03-20T02:48:12.644Z,98673.45
2019-03-20T02:50:42.008Z,98676.70
2019-03-20T02:53:11.370Z,98675.25
2019-03-20T02:55:40.719Z,98671.75
2019-03-20T02:58:10.082Z,98674.28
2019-03-20T03:00:39.416Z,98678.03
2019-03-20T03:03:08.770Z,98675.77
2019-03-20T03:05:38.133Z,98669.12
2019-03-20T03:08:07.505Z,98681.15
2019-03-20T03:10:36.829Z,98675.25
2019-03-20T03:13:06.258Z,98673.94
2019-03-20T03:15:35.593Z,98681.55
2019-03-20T03:18:05.031Z,98679.94
2019-03-20T03:20:34.393Z,98682.69
2019-03-20T03:23:03.753Z,98679.56
2019-03-20T03:25:33.122Z,98685.55
2019-03-20T03:28:02.456Z,98685.60
2019-03-20T03:30:31.872Z,98689.69
2019-03-20T03:33:01.249Z,98692.02
2019-03-20T03:35:30.877Z,98688.73
2019-03-20T03:38:00.265Z,98695.08
2019-03-20T03:40:29.621Z,98697.23
2019-03-20T03:42:58.974Z,98684.02
2019-03-20T03:45:28.335Z,98691.02
2019-03-20T03:47:57.719Z,98688.84
2019-03-20T03:50:27.065Z,98694.17
2019-03-20T03:52:56.411Z,98700.64
2019-03-20T03:55:25.765Z,98701.27
2019-03-20T03:57:55.182Z,98702.56
2019-03-20T04:00:24.557Z,98706.72
2019-03-20T04:02:53.968Z,98716.52
2019-03-20T04:05:23.349Z,98713.12
2019-03-20T04:07:52.741Z,98716.34
2019-03-20T04:10:22.117Z,98725.37
2019-03-20T04:12:51.475Z,98711.84
2019-03-20T04:15:20.818Z,98725.00
2019-03-20T04:17:50.167Z,98717.25
2019-03-20T04:20:19.914Z,98720.42
2019-03-20T04:22:49.463Z,98721.67
2019-03-20T04:25:18.881Z,98728.11
2019-03-20T04:27:48.286Z,98731.42
2019-03-20T04:30:17.727Z,98730.30
2019-03-20T04:32:47.099Z,98725.69
2019-03-20T04:35:16.597Z,98736.88
2019-03-20T04:37:45.963Z,98732.13
2019-03-20T04:40:15.318Z,98731.87
2019-03-20T04:42:44.797Z,98731.98
2019-03-20T04:45:14.218Z,98735.25
2019-03-20T04:47:43.913Z,98735.22
2019-03-20T04:50:13.353Z,98737.25
2019-03-20T04:52:42.788Z,98745.95
2019-03-20T04:55:12.608Z,98744.30
2019-03-20T04:57:42.037Z,98736.63
2019-03-20T05:00:13.142Z,98736.64
2019-03-20T05:02:42.493Z,98738.84
2019-03-20T05:05:11.910Z,98748.76
2019-03-20T05:07:41.338Z,98742.23
2019-03-20T05:10:12.106Z,98737.42
2019-03-20T05:12:41.528Z,98750.98
2019-03-20T05:15:11.147Z,98753.57
2019-03-20T05:17:40.578Z,98751.71
2019-03-20T05:20:11.226Z,98758.78
2019-03-20T05:22:40.593Z,98755.44
2019-03-20T05:25:10.183Z,98752.78
2019-03-20T05:27:39.542Z,98757.58
2019-03-20T05:30:09.921Z,98765.97
2019-03-20T05:32:39.281Z,98765.56
2019-03-20T05:35:08.752Z,98767.78
2019-03-20T05:37:38.118Z,98775.55
2019-03-20T05:40:08.423Z,98779.31
2019-03-20T05:42:37.772Z,98781.17
2019-03-20T05:45:08.483Z,98786.56
2019-03-20T05:47:37.821Z,98789.14
2019-03-20T05:50:07.605Z,98785.42
2019-03-20T05:52:36.951Z,98794.55
2019-03-20T05:55:06.742Z,98796.56
2019-03-20T05:57:36.172Z,98801.83
2019-03-20T06:00:06.089Z,98803.81
2019-03-20T06:02:35.496Z,98804.44
2019-03-20T06:05:05.324Z,98806.80
2019-03-20T06:07:34.886Z,98812.66
2019-03-20T06:10:05.219Z,98812.52
2019-03-20T06:12:34.564Z,98813.77
2019-03-20T06:15:04.033Z,98814.12
2019-03-20T06:17:33.392Z,98826.70
2019-03-20T06:20:02.804Z,98827.31
2019-03-20T06:22:32.176Z,98827.86
2019-03-20T06:25:01.517Z,98829.87
2019-03-20T06:27:30.890Z,98829.77
2019-03-20T06:30:00.364Z,98829.06
2019-03-20T06:32:29.675Z,98824.00
2019-03-20T06:34:59.034Z,98833.08
2019-03-20T06:37:32.708Z,98839.70
2019-03-20T06:39:59.791Z,98847.42
2019-03-20T06:42:29.145Z,98844.31
2019-03-20T06:44:58.530Z,98846.92
2019-03-20T06:47:27.898Z,98851.95
2019-03-20T06:49:57.293Z,98851.39
2019-03-20T06:52:26.651Z,98851.84
2019-03-20T06:54:56.087Z,98856.51
2019-03-20T06:57:25.495Z,98860.67
2019-03-20T07:00:31.953Z,98863.42
2019-03-20T07:03:02.292Z,98867.68
2019-03-20T07:06:07.299Z,98864.79
2019-03-20T07:08:45.008Z,98862.08
2019-03-20T07:11:15.093Z,98864.28
2019-03-20T07:13:44.508Z,98872.41
2019-03-20T07:16:13.881Z,98863.73
2019-03-20T07:18:43.298Z,98869.95
2019-03-20T07:21:12.746Z,98870.31
2019-03-20T07:23:42.088Z,98874.07
2019-03-20T07:26:11.451Z,98876.53
2019-03-20T07:28:40.809Z,98883.11
2019-03-20T07:31:15.208Z,98878.59
2019-03-20T07:33:41.375Z,98878.38
2019-03-20T07:36:11.021Z,98878.44
2019-03-20T07:38:40.377Z,98874.92
2019-03-20T07:41:09.708Z,98886.77
2019-03-20T07:43:39.068Z,98884.30
2019-03-20T07:46:08.499Z,98884.65
2019-03-20T07:48:37.862Z,98884.52
2019-03-20T07:51:07.202Z,98896.45
2019-03-20T07:53:36.547Z,98882.55
2019-03-20T07:56:05.966Z,98880.61
2019-03-20T07:58:38.356Z,98883.22
2019-03-20T08:01:07.790Z,98886.91
2019-03-20T08:03:37.144Z,98883.36
2019-03-20T08:06:06.880Z,98887.05
2019-03-20T08:08:36.208Z,98887.72
2019-03-20T08:11:05.702Z,98889.80
2019-03-20T08:13:35.044Z,98887.62
2019-03-20T08:16:04.464Z,98898.57
2019-03-20T08:18:33.821Z,98895.39
2019-03-20T08:21:03.246Z,98895.44
2019-03-20T08:23:32.630Z,98899.83
2019-03-20T08:26:04.952Z,98896.34
2019-03-20T08:28:34.293Z,98900.44
2019-03-20T08:31:03.940Z,98906.17
2019-03-20T08:33:33.378Z,98905.72
2019-03-20T08:36:02.936Z,98911.06
2019-03-20T08:38:32.294Z,98910.60
2019-03-20T08:41:01.656Z,98920.03
2019-03-20T08:43:31.056Z,98915.54
2019-03-20T08:46:00.425Z,98914.89
2019-03-20T08:48:29.907Z,98910.61
2019-03-20T08:50:59.242Z,98915.88
2019-03-20T08:53:28.614Z,98910.78
2019-03-20T08:55:57.993Z,98916.89
2019-03-20T08:58:27.395Z,98917.61
2019-03-20T09:00:56.791Z,98916.78
2019-03-20T09:03:26.166Z,98914.19
2019-03-20T09:05:56.929Z,98918.84
2019-03-20T09:08:29.626Z,98921.32
2019-03-20T09:10:57.417Z,98918.77
2019-03-20T09:13:26.886Z,98918.30
2019-03-20T09:15:56.284Z,98915.01
2019-03-20T09:18:25.748Z,98917.47
2019-03-20T09:20:55.112Z,98916.88
2019-03-20T09:23:24.524Z,98917.91
2019-03-20T09:25:54.100Z,98916.50
2019-03-20T09:28:23.738Z,98928.66
2019-03-20T09:30:53.097Z,98921.14
2019-03-20T09:33:22.472Z,98920.13
2019-03-20T09:35:51.833Z,98923.63
2019-03-20T09:38:21.219Z,98917.13
2019-03-20T09:40:50.720Z,98921.54
2019-03-20T09:43:20.069Z,98924.42
2019-03-20T09:45:49.437Z,98919.56
2019-03-20T09:48:18.809Z,98924.20
2019-03-20T09:50:48.145Z,98936.19
2019-03-20T09:53:17.507Z,98918.95
2019-03-20T09:55:46.853Z,98921.58
2019-03-20T09:58:16.219Z,98921.92
2019-03-20T10:00:57.625Z,98924.61
2019-03-20T10:03:28.641Z,98926.76
2019-03-20T10:05:57.984Z,98925.20
2019-03-20T10:08:27.338Z,98924.03
2019-03-20T10:10:56.793Z,98927.89
2019-03-20T10:13:26.177Z,98929.73
2019-03-20T10:15:55.518Z,98926.81
2019-03-20T10:18:24.997Z,98931.14
2019-03-20T10:23:41.278Z,98937.45
2019-03-20T10:26:10.634Z,98935.22
2019-03-20T10:28:40.004Z,98928.94
2019-03-20T10:31:09.374Z,98936.50
2019-03-20T10:33:38.748Z,98936.94
2019-03-20T10:36:08.163Z,98936.86
2019-03-20T10:38:37.591Z,98937.28
2019-03-20T10:41:06.938Z,98940.77
2019-03-20T10:43:36.322Z,98934.16
2019-03-20T10:46:05.775Z,98931.14
2019-03-20T10:48:35.182Z,98940.20
2019-03-20T10:51:04.633Z,98951.13
2019-03-20T10:53:34.051Z,98948.84
2019-03-20T10:56:03.446Z,98950.55
2019-03-20T10:58:32.914Z,98948.02
2019-03-20T11:01:02.366Z,98950.54
2019-03-20T11:03:31.780Z,98951.77
2019-03-20T11:06:01.144Z,98948.02
2019-03-20T11:08:30.539Z,98951.68
2019-03-20T11:10:59.923Z,98948.14
2019-03-20T11:13:29.317Z,98940.82
2019-03-20T11:15:58.699Z,98937.34
2019-03-20T11:18:28.166Z,98945.89
2019-03-20T11:20:57.581Z,98946.48
2019-03-20T11:23:27.001Z,98942.98
2019-03-20T11:25:56.388Z,98944.79
2019-03-20T11:28:25.782Z,98939.33
2019-03-20T11:30:55.250Z,98930.27
2019-03-20T11:33:24.722Z,98934.23
2019-03-20T11:35:54.110Z,98934.80
2019-03-20T11:38:23.500Z,98938.02
2019-03-20T11:40:52.897Z,98923.61
2019-03-20T11:43:22.370Z,98929.86
2019-03-20T11:45:51.759Z,98932.67
2019-03-20T11:48:21.140Z,98926.48
2019-03-20T11:50:50.538Z,98920.03
2019-03-20T11:53:19.952Z,98915.02
2019-03-20T11:55:49.339Z,98911.91
2019-03-20T12:02:15.687Z,98916.73
2019-03-20T12:04:45.090Z,98910.72
2019-03-20T12:07:14.485Z,98908.77
2019-03-20T12:09:43.892Z,98909.89
2019-03-20T12:12:13.302Z,98902.66
2019-03-20T12:14:42.700Z,98902.00
2019-03-20T12:17:12.107Z,98893.42
2019-03-20T12:19:45.141Z,98898.50
2019-03-20T12:22:12.663Z,98900.06
2019-03-20T12:24:42.118Z,98896.75
2019-03-20T12:27:15.462Z,98894.77
2019-03-20T12:29:42.637Z,98881.11
2019-03-20T12:32:12.029Z,98883.09
2019-03-20T12:34:41.422Z,98888.87
2019-03-20T12:37:10.887Z,98883.66
2019-03-20T12:39:40.304Z,98878.48
2019-03-20T12:42:09.704Z,98876.50
2019-03-20T12:44:39.128Z,98877.55
2019-03-20T12:47:08.529Z,98876.50
2019-03-20T12:49:37.914Z,98874.47
2019-03-20T12:52:07.317Z,98865.69
2019-03-20T12:54:36.773Z,98873.30
2019-03-20T12:57:06.231Z,98863.53
2019-03-20T12:59:35.614Z,98859.41
2019-03-20T13:02:05.019Z,98857.89
2019-03-20T13:04:34.440Z,98864.16
2019-03-20T13:07:03.839Z,98865.66
2019-03-20T13:09:33.212Z,98863.48
2019-03-20T13:12:02.610Z,98853.73
2019-03-20T13:14:32.089Z,98855.91
2019-03-20T13:17:01.483Z,98853.38
2019-03-20T13:19:30.863Z,98853.38
2019-03-20T13:22:00.279Z,98855.63
2019-03-20T13:24:29.666Z,98850.42
2019-03-20T13:26:59.064Z,98845.38
2019-03-20T13:29:28.445Z,98847.03
2019-03-20T13:31:57.837Z,98838.83
2019-03-20T13:34:27.239Z,98841.01
2019-03-20T13:36:56.616Z,98845.34
2019-03-20T13:39:26.010Z,98853.70
2019-03-20T13:41:55.399Z,98847.67
2019-03-20T13:44:24.771Z,98849.45
2019-03-20T13:46:54.166Z,98837.82
2019-03-20T13:49:23.548Z,98834.72
2019-03-20T13:51:52.931Z,98837.84
2019-03-20T13:54:22.320Z,98834.59
2019-03-20T13:56:51.718Z,98832.27
2019-03-20T13:59:21.115Z,98833.40
2019-03-20T14:01:50.582Z,98833.73
2019-03-20T14:04:19.960Z,98833.25
2019-03-20T14:06:49.348Z,98829.02
2019-03-20T14:09:18.733Z,98831.22
2019-03-20T14:11:48.132Z,98832.97
2019-03-20T14:14:17.565Z,98828.48
2019-03-20T14:16:46.957Z,98823.67
2019-03-20T14:19:16.350Z,98827.59
2019-03-20T14:21:45.998Z,98826.16
2019-03-20T14:24:15.378Z,98812.66
2019-03-20T14:26:44.772Z,98828.69
2019-03-20T14:29:14.148Z,98819.83
2019-03-20T14:31:43.555Z,98811.84
2019-03-20T14:34:12.956Z,98817.17
2019-03-20T14:36:42.388Z,98813.86
2019-03-20T14:39:11.797Z,98811.65
2019-03-20T14:41:41.186Z,98812.59
2019-03-20T14:44:10.574Z,98813.02
2019-03-20T14:46:40.165Z,98809.94
2019-03-20T14:49:11.359Z,98808.30
2019-03-20T14:51:40.824Z,98806.03
2019-03-20T14:54:10.284Z,98806.66
2019-03-20T14:56:39.671Z,98802.58
2019-03-20T14:59:09.059Z,98801.91
2019-03-20T15:01:38.452Z,98802.17
2019-03-20T15:04:07.854Z,98794.31
2019-03-20T15:06:37.248Z,98807.23
2019-03-20T15:09:08.523Z,98800.78
2019-03-20T15:11:38.058Z,98792.93
2019-03-20T15:14:07.535Z,98785.72
2019-03-20T15:16:36.911Z,98798.13
2019-03-20T15:19:07.195Z,98793.59
2019-03-20T15:21:36.561Z,98799.15
2019-03-20T15:24:06.045Z,98797.80
2019-03-20T15:26:35.428Z,98793.88
2019-03-20T15:29:04.902Z,98799.84
2019-03-20T15:31:34.285Z,98795.05
2019-03-20T15:34:03.670Z,98786.94
2019-03-20T15:36:33.049Z,98792.13
2019-03-20T15:39:02.468Z,98794.63
2019-03-20T15:41:31.878Z,98796.82
2019-03-20T15:44:02.658Z,98787.43
2019-03-20T15:46:32.202Z,98792.05
2019-03-20T15:49:01.614Z,98800.44
2019-03-20T15:51:30.984Z,98798.47
2019-03-20T15:54:00.532Z,98802.23
2019-03-20T15:56:30.268Z,98806.95
2019-03-20T15:58:59.913Z,98815.50
2019-03-20T16:01:29.520Z,98811.41
2019-03-20T16:03:58.953Z,98812.08
2019-03-20T16:06:28.409Z,98808.92
2019-03-20T16:08:57.822Z,98806.61
2019-03-20T16:11:27.238Z,98811.70
2019-03-20T16:13:56.668Z,98808.78
2019-03-20T16:16:26.139Z,98811.72
2019-03-20T16:18:55.528Z,98808.64
2019-03-20T16:21:24.916Z,98806.78
2019-03-20T16:23:54.381Z,98819.24
2019-03-20T16:26:23.770Z,98819.90
2019-03-20T16:28:53.157Z,98823.55
2019-03-20T16:31:22.566Z,98816.36
2019-03-20T16:33:51.969Z,98822.33
2019-03-20T16:36:21.341Z,98821.27
2019-03-20T16:38:50.729Z,98823.00
2019-03-20T16:41:20.129Z,98825.14
2019-03-20T16:43:49.536Z,98828.78
2019-03-20T16:46:18.903Z,98828.11
2019-03-20T16:48:48.285Z,98832.17
2019-03-20T16:51:17.674Z,98830.55
2019-03-20T16:53:47.069Z,98826.63
2019-03-20T16:56:16.558Z,98831.48
2019-03-20T16:58:45.998Z,98828.94
2019-03-20T17:01:15.385Z,98834.14
2019-03-20T17:03:44.785Z,98833.22
2019-03-20T17:06:14.265Z,98840.50
2019-03-20T17:08:45.225Z,98840.63
2019-03-20T17:11:14.770Z,98848.63
2019-03-20T17:13:44.184Z,98845.53
2019-03-20T17:16:13.572Z,98845.30
2019-03-20T17:18:43.046Z,98838.77
2019-03-20T17:21:12.428Z,98842.62
2019-03-20T17:23:41.833Z,98844.41
2019-03-20T17:26:11.230Z,98850.30
2019-03-20T17:28:40.693Z,98854.25
2019-03-20T17:31:10.090Z,98854.45
2019-03-20T17:33:39.502Z,98860.42
2019-03-20T17:36:08.973Z,98847.70
2019-03-20T17:38:38.365Z,98851.63
2019-03-20T17:41:07.828Z,98854.00
2019-03-20T17:43:37.222Z,98849.30
2019-03-20T17:46:06.841Z,98855.97
2019-03-20T17:48:36.227Z,98863.10
2019-03-20T17:51:05.608Z,98867.58
2019-03-20T17:53:35.013Z,98861.85
2019-03-20T17:56:04.562Z,98859.11
2019-03-20T17:58:33.992Z,98866.95
2019-03-20T18:01:03.374Z,98860.59
2019-03-20T18:03:32.794Z,98856.33
2019-03-20T18:06:02.200Z,98865.41
2019-03-20T18:08:31.595Z,98866.91
2019-03-20T18:11:01.057Z,98863.66
2019-03-20T18:13:30.453Z,98858.50
2019-03-20T18:15:59.845Z,98859.86
2019-03-20T18:18:29.257Z,98871.86
2019-03-20T18:20:58.647Z,98877.66
2019-03-20T18:23:28.137Z,98872.39
2019-03-20T18:25:57.542Z,98879.03
2019-03-20T18:28:26.947Z,98879.63
2019-03-20T18:30:56.370Z,98876.25
2019-03-20T18:33:25.768Z,98887.34
2019-03-20T18:35:55.170Z,98890.53
2019-03-20T18:38:24.554Z,98880.36
2019-03-20T18:40:53.952Z,98889.33
2019-03-20T18:43:23.327Z,98887.83
2019-03-20T18:45:52.683Z,98888.87
2019-03-20T18:48:22.049Z,98892.84
2019-03-20T18:50:51.424Z,98889.34
2019-03-20T18:53:20.889Z,98893.23
2019-03-20T18:55:50.313Z,98893.23
2019-03-20T18:58:19.684Z,98894.64
2019-03-20T19:00:49.140Z,98894.06
2019-03-20T19:03:18.593Z,98894.62
2019-03-20T19:05:51.211Z,98898.84
2019-03-20T19:08:20.731Z,98897.79
2019-03-20T19:10:50.163Z,98903.24
2019-03-20T19:13:19.633Z,98913.83
2019-03-20T19:15:49.299Z,98909.94
2019-03-20T19:18:18.717Z,98905.87
2019-03-20T19:20:48.324Z,98909.89
2019-03-20T19:23:24.266Z,98910.06
2019-03-20T19:25:55.547Z,98917.90
2019-03-20T19:28:24.890Z,98923.68
2019-03-20T19:30:57.235Z,98931.59
2019-03-20T19:33:26.632Z,98927.76
2019-03-20T19:35:55.996Z,98931.11
2019-03-20T19:38:34.480Z,98924.73
2019-03-20T19:40:56.465Z,98929.66
2019-03-20T19:43:25.903Z,98928.25
2019-03-20T19:45:55.264Z,98929.25
2019-03-20T19:48:24.624Z,98924.53
2019-03-20T19:50:54.051Z,98936.78
2019-03-20T19:53:23.402Z,98939.75
2019-03-20T19:55:52.795Z,98936.09
2019-03-20T19:58:22.152Z,98937.11
2019-03-20T20:00:51.528Z,98938.91
2019-03-20T20:03:20.905Z,98934.59
2019-03-20T20:05:50.296Z,98940.54
2019-03-20T20:08:19.663Z,98940.62
2019-03-20T20:10:49.103Z,98943.56
2019-03-20T20:13:18.488Z,98942.16
2019-03-20T20:15:47.877Z,98942.88
2019-03-20T20:18:17.246Z,98945.31
2019-03-20T20:20:46.675Z,98949.65
2019-03-20T20:23:16.105Z,98954.21
2019-03-20T20:25:45.483Z,98948.03
2019-03-20T20:28:31.918Z,98957.53
2019-03-20T20:31:01.453Z,98957.27
2019-03-20T20:33:30.882Z,98956.97
2019-03-20T20:36:00.319Z,98963.72
2019-03-20T20:38:29.683Z,98962.02
2019-03-20T20:40:59.036Z,98963.64
2019-03-20T20:43:28.394Z,98967.67
2019-03-20T20:45:57.763Z,98963.95
2019-03-20T20:48:27.124Z,98968.05
2019-03-20T20:50:56.742Z,98968.27
2019-03-20T20:53:26.104Z,98975.45
2019-03-20T20:55:58.252Z,98968.23
2019-03-20T20:58:27.603Z,98963.28
2019-03-20T21:00:56.989Z,98965.27
2019-03-20T21:03:26.349Z,98963.87
2019-03-20T21:05:55.705Z,98959.47
2019-03-20T21:08:25.163Z,98959.55
2019-03-20T21:10:54.519Z,98962.45
2019-03-20T21:13:24.007Z,98966.19
2019-03-20T21:15:57.338Z,98959.91
2019-03-20T21:19:04.070Z,98956.97
2019-03-20T21:21:44.351Z,98965.98
2019-03-20T21:24:25.487Z,98970.59
2019-03-20T21:27:26.550Z,98963.20
2019-03-20T21:30:49.909Z,98961.23
2019-03-20T21:34:01.313Z,98960.36
2019-03-20T21:37:19.693Z,98960.98
2019-03-20T21:39:49.587Z,98975.19
2019-03-20T21:43:08.991Z,98975.19
2019-03-20T21:45:55.089Z,98972.25
2019-03-20T21:48:25.052Z,98974.21
2019-03-20T21:51:23.351Z,98971.70
2019-03-20T21:54:34.405Z,98968.83
2019-03-20T21:57:32.463Z,98965.16
2019-03-20T22:00:41.578Z,98970.07
2019-03-20T22:03:11.475Z,98958.80
2019-03-20T22:06:39.838Z,98955.06
2019-03-20T22:09:53.640Z,98955.39
2019-03-20T22:12:34.182Z,98952.78
2019-03-20T22:15:12.079Z,98957.11
2019-03-20T22:18:20.011Z,98960.06
2019-03-20T22:20:57.313Z,98963.20
2019-03-20T22:24:14.248Z,98973.36
2019-03-20T22:27:25.099Z,98975.85
2019-03-20T22:29:54.989Z,98966.03
2019-03-20T22:33:10.413Z,98968.78
2019-03-20T22:36:16.202Z,98975.78
2019-03-20T22:39:23.231Z,98976.09
2019-03-20T22:42:13.304Z,98972.32
2019-03-20T22:44:50.641Z,98972.91
2019-03-20T22:47:56.941Z,98979.27
2019-03-20T22:51:00.245Z,98974.53
2019-03-20T22:54:04.268Z,98977.55
2019-03-20T22:57:00.509Z,98986.20
2019-03-20T22:59:30.406Z,98990.53
2019-03-20T23:02:19.243Z,98983.59
2019-03-20T23:04:55.289Z,98982.09
2019-03-20T23:07:25.296Z,98976.45
2019-03-20T23:09:55.177Z,98966.55
2019-03-20T23:12:25.190Z,98972.84
2019-03-20T23:14:55.093Z,98965.37
2019-03-20T23:17:24.987Z,98969.30
2019-03-20T23:19:55.896Z,98981.42
2019-03-20T23:22:25.829Z,98976.51
2019-03-20T23:24:55.727Z,98979.05
2019-03-20T23:27:30.430Z,98978.39
2019-03-20T23:30:00.986Z,98981.20
2019-03-20T23:32:31.223Z,98981.75
2019-03-20T23:35:01.127Z,98974.80
2019-03-20T23:37:31.112Z,98975.73
2019-03-20T23:40:01.017Z,98971.01
2019-03-20T23:42:30.928Z,98968.06
2019-03-20T23:45:00.920Z,98965.96
2019-03-20T23:48:02.612Z,98965.90
2019-03-20T23:50:32.510Z,98969.69
2019-03-20T23:53:02.422Z,98969.24
2019-03-20T23:55:32.343Z,98967.66
2019-03-20T23:58:02.233Z,98961.83
